Richmond Highlands, Washington
Current Conditions -  °F | °C
As of 12:08 AM on Monday 26 Jan 2015 (Local Time) from KPAE Reporting Station
Moderate Fog Moderate Fog  
Wind Chill: 45°   Ceiling: 100
Heat Index: 45°   Visibility: 0.25mi
Dew Point: 44°   Wind: 0mph
Humidity: 97%   Direction: NA
Pressure: 29.96"   Gusts: NA
Location:  47.7401°N, 122.344°W
Report Text: KPAE 260808Z 00000KT 1/4SM R16R/1400V3000FT FG VV001 07/07 A2996 RMK AO2 T00720067
Loading
Personal Weather Stations






























Interactive Weather Map New forecast layout! Learn more

10-Day Weather Forecast

Advertisements
Track Severe Weather on mobile